Leila H — 8PAN3 — position and weather

sailwx.info

Track history (hours):
 
Tides and Currents Weather Stations Pressure Air Temp Water Temp Dewpoint Dewpoint Depression Visibility Wind Speed Wind Dir Waves Ship Positions

Leila H

Last reported at 2018-May-26 04:36 UTC. Time now 2018-Jul-17 09:38 UTC.
Position N 01°25' E 104°29'.
Warning: this ship's position is 52 days out of date.

Length 140 m; draft 5.9 m.

Type: Cargo ship. MMSI: 314442000.

Date/timePositionNaut miles runAvg speedWind from/ knotsBaromVisibWave heightAir tempDewpointWater temp
2018-May-26 04:36N 01°25' E 104°29'514.3
2018-May-26 04:16N 01°22' E 104°26'414.2
2018-May-26 04:00N 01°20' E 104°23'713.8
2018-May-26 03:30N 01°16' E 104°17'714.2
2018-May-26 03:00N 01°15' E 104°10'713.9
2018-May-26 02:29N 01°15' E 104°03'612.5
2018-May-26 02:00N 01°14' E 103°57'612.6
2018-May-26 01:30N 01°11' E 103°51'3 6.1
2018-May-26 01:00N 01°13' E 103°49'3 4.5
2018-May-26 00:26N 01°15' E 103°48'0 0.2
2018-May-25 23:57N 01°15' E 103°48'0 0.0
2018-May-25 23:27N 01°15' E 103°48'0 0.0
2018-May-25 23:00N 01°15' E 103°48'0 0.0
2018-May-25 22:30N 01°15' E 103°48'0 0.1
2018-May-25 21:57N 01°15' E 103°48'0 0.0
2018-May-25 21:30N 01°15' E 103°48'0 0.1
2018-May-25 21:00N 01°15' E 103°48'0 0.1
2018-May-25 20:30N 01°15' E 103°48'0 0.1
2018-May-25 19:57N 01°15' E 103°48'0 0.0
2018-May-25 19:30N 01°15' E 103°48'0 0.1
2018-May-25 19:00N 01°15' E 103°48'0 0.1
2018-May-25 18:30N 01°15' E 103°48'0 0.1
2018-May-25 17:57N 01°15' E 103°48'0 0.0
2018-May-25 17:30N 01°15' E 103°48'0 0.0
2018-May-25 17:00N 01°15' E 103°48'0 0.1
2018-May-25 16:20N 01°15' E 103°48'0 0.1
2018-May-25 15:57N 01°15' E 103°48'0 0.1
2018-May-25 15:30N 01°15' E 103°48'0 0.1
2018-May-25 14:57N 01°15' E 103°48'0 0.1
2018-May-25 14:30N 01°15' E 103°48'0 0.1
2018-May-25 14:00N 01°15' E 103°48'0 0.1
2018-May-25 13:30N 01°15' E 103°48'0 0.0
2018-May-25 12:57N 01°15' E 103°48'0 0.0
2018-May-25 12:26N 01°15' E 103°48'0 0.0
2018-May-25 11:59N 01°15' E 103°48'0 0.1
2018-May-25 11:27N 01°15' E 103°48'0 0.0
2018-May-25 11:00N 01°15' E 103°48'0 0.1
2018-May-25 10:30N 01°15' E 103°48'0 0.1
2018-May-25 09:59N 01°15' E 103°48'0 0.1
2018-May-25 09:26N 01°15' E 103°48'0 0.5
2018-May-25 09:00N 01°15' E 103°48'3 6.8
2018-May-25 08:30N 01°17' E 103°45'2 4.2
2018-May-25 07:59N 01°18' E 103°43'0 0.0
2018-May-25 07:26N 01°18' E 103°43'0 0.0
2018-May-25 06:59N 01°18' E 103°43'0 0.0
2018-May-25 06:29N 01°18' E 103°43'0 0.0
2018-May-25 05:56N 01°18' E 103°43'0 0.0
2018-May-25 05:29N 01°18' E 103°43'0 0.0
2018-May-25 04:55N 01°18' E 103°43'0 0.0
2018-May-25 04:29N 01°18' E 103°43'0 0.0
2018-May-25 03:47N 01°18' E 103°43'0 0.0
2018-May-25 03:20N 01°18' E 103°43'0 0.0
2018-May-25 02:53N 01°18' E 103°43'0 0.0
2018-May-25 02:25N 01°18' E 103°43'0 0.0
2018-May-25 01:56N 01°18' E 103°43'0 0.0
2018-May-25 01:25N 01°18' E 103°43'0 0.0
2018-May-25 00:59N 01°18' E 103°43'0 0.0
2018-May-25 00:29N 01°18' E 103°43'0 0.0
2018-May-24 23:53N 01°18' E 103°43'0 0.2
2018-May-24 23:30N 01°18' E 103°43'1 2.3
2018-May-24 23:00N 01°18' E 103°44'1 2.3
2018-May-24 22:30N 01°17' E 103°45'3 6.4
2018-May-24 22:00N 01°15' E 103°48'1 1.5
2018-May-24 21:30N 01°15' E 103°48'0 0.1
2018-May-24 21:00N 01°15' E 103°48'0 0.1
2018-May-24 20:30N 01°15' E 103°48'0 0.0
2018-May-24 20:00N 01°15' E 103°48'0 0.0
2018-May-24 19:30N 01°15' E 103°48'0 0.1
2018-May-24 19:00N 01°15' E 103°48'0 0.1
2018-May-24 18:28N 01°15' E 103°48'0 0.1
2018-May-24 17:55N 01°15' E 103°48'0 0.0
2018-May-24 17:30N 01°15' E 103°48'0 0.0
2018-May-24 16:58N 01°15' E 103°48'0 0.0
2018-May-24 16:30N 01°15' E 103°48'0 0.0
2018-May-24 15:58N 01°15' E 103°48'0 0.0
2018-May-24 15:30N 01°15' E 103°48'0 0.0
2018-May-24 15:00N 01°15' E 103°48'0 0.1
2018-May-24 14:30N 01°15' E 103°48'0 0.1
2018-May-24 13:54N 01°15' E 103°48'0 0.8
2018-May-24 13:31N 01°15' E 103°48'  
Track history (hours):
 
Tides and Currents Weather Stations Pressure Air Temp Water Temp Dewpoint Dewpoint Depression Visibility Wind Speed Wind Dir Waves Ship Positions

Leila H

Last reported at 2018-May-26 04:36 UTC. Time now 2018-Jul-17 09:38 UTC.
Position N 01°25' E 104°29'.
Warning: this ship's position is 52 days out of date.

Length 140 m; draft 5.9 m.

Type: Cargo ship. MMSI: 314442000.

Date/timePositionNaut miles runAvg speedWind from/ knotsBaromVisibWave heightAir tempDewpointWater temp
2018-May-26 04:36N 01°25' E 104°29'514.3
2018-May-26 04:16N 01°22' E 104°26'414.2
2018-May-26 04:00N 01°20' E 104°23'713.8
2018-May-26 03:30N 01°16' E 104°17'714.2
2018-May-26 03:00N 01°15' E 104°10'713.9
2018-May-26 02:29N 01°15' E 104°03'612.5
2018-May-26 02:00N 01°14' E 103°57'612.6
2018-May-26 01:30N 01°11' E 103°51'3 6.1
2018-May-26 01:00N 01°13' E 103°49'3 4.5
2018-May-26 00:26N 01°15' E 103°48'0 0.2
2018-May-25 23:57N 01°15' E 103°48'0 0.0
2018-May-25 23:27N 01°15' E 103°48'0 0.0
2018-May-25 23:00N 01°15' E 103°48'0 0.0
2018-May-25 22:30N 01°15' E 103°48'0 0.1
2018-May-25 21:57N 01°15' E 103°48'0 0.0
2018-May-25 21:30N 01°15' E 103°48'0 0.1
2018-May-25 21:00N 01°15' E 103°48'0 0.1
2018-May-25 20:30N 01°15' E 103°48'0 0.1
2018-May-25 19:57N 01°15' E 103°48'0 0.0
2018-May-25 19:30N 01°15' E 103°48'0 0.1
2018-May-25 19:00N 01°15' E 103°48'0 0.1
2018-May-25 18:30N 01°15' E 103°48'0 0.1
2018-May-25 17:57N 01°15' E 103°48'0 0.0
2018-May-25 17:30N 01°15' E 103°48'0 0.0
2018-May-25 17:00N 01°15' E 103°48'0 0.1
2018-May-25 16:20N 01°15' E 103°48'0 0.1
2018-May-25 15:57N 01°15' E 103°48'0 0.1
2018-May-25 15:30N 01°15' E 103°48'0 0.1
2018-May-25 14:57N 01°15' E 103°48'0 0.1
2018-May-25 14:30N 01°15' E 103°48'0 0.1
2018-May-25 14:00N 01°15' E 103°48'0 0.1
2018-May-25 13:30N 01°15' E 103°48'0 0.0
2018-May-25 12:57N 01°15' E 103°48'0 0.0
2018-May-25 12:26N 01°15' E 103°48'0 0.0
2018-May-25 11:59N 01°15' E 103°48'0 0.1
2018-May-25 11:27N 01°15' E 103°48'0 0.0
2018-May-25 11:00N 01°15' E 103°48'0 0.1
2018-May-25 10:30N 01°15' E 103°48'0 0.1
2018-May-25 09:59N 01°15' E 103°48'0 0.1
2018-May-25 09:26N 01°15' E 103°48'0 0.5
2018-May-25 09:00N 01°15' E 103°48'3 6.8
2018-May-25 08:30N 01°17' E 103°45'2 4.2
2018-May-25 07:59N 01°18' E 103°43'0 0.0
2018-May-25 07:26N 01°18' E 103°43'0 0.0
2018-May-25 06:59N 01°18' E 103°43'0 0.0
2018-May-25 06:29N 01°18' E 103°43'0 0.0
2018-May-25 05:56N 01°18' E 103°43'0 0.0
2018-May-25 05:29N 01°18' E 103°43'0 0.0
2018-May-25 04:55N 01°18' E 103°43'0 0.0
2018-May-25 04:29N 01°18' E 103°43'0 0.0
2018-May-25 03:47N 01°18' E 103°43'0 0.0
2018-May-25 03:20N 01°18' E 103°43'0 0.0
2018-May-25 02:53N 01°18' E 103°43'0 0.0
2018-May-25 02:25N 01°18' E 103°43'0 0.0
2018-May-25 01:56N 01°18' E 103°43'0 0.0
2018-May-25 01:25N 01°18' E 103°43'0 0.0
2018-May-25 00:59N 01°18' E 103°43'0 0.0
2018-May-25 00:29N 01°18' E 103°43'0 0.0
2018-May-24 23:53N 01°18' E 103°43'0 0.2
2018-May-24 23:30N 01°18' E 103°43'1 2.3
2018-May-24 23:00N 01°18' E 103°44'1 2.3
2018-May-24 22:30N 01°17' E 103°45'3 6.4
2018-May-24 22:00N 01°15' E 103°48'1 1.5
2018-May-24 21:30N 01°15' E 103°48'0 0.1
2018-May-24 21:00N 01°15' E 103°48'0 0.1
2018-May-24 20:30N 01°15' E 103°48'0 0.0
2018-May-24 20:00N 01°15' E 103°48'0 0.0
2018-May-24 19:30N 01°15' E 103°48'0 0.1
2018-May-24 19:00N 01°15' E 103°48'0 0.1
2018-May-24 18:28N 01°15' E 103°48'0 0.1
2018-May-24 17:55N 01°15' E 103°48'0 0.0
2018-May-24 17:30N 01°15' E 103°48'0 0.0
2018-May-24 16:58N 01°15' E 103°48'0 0.0
2018-May-24 16:30N 01°15' E 103°48'0 0.0
2018-May-24 15:58N 01°15' E 103°48'0 0.0
2018-May-24 15:30N 01°15' E 103°48'0 0.0
2018-May-24 15:00N 01°15' E 103°48'0 0.1
2018-May-24 14:30N 01°15' E 103°48'0 0.1
2018-May-24 13:54N 01°15' E 103°48'0 0.8
2018-May-24 13:31N 01°15' E 103°48'  

Dump ship's entire track history